createdAt,value
2022-10-15T00:00:52.364Z,14.33
2022-10-15T00:01:52.361Z,14.36
2022-10-15T00:02:52.369Z,14.37
2022-10-15T00:03:52.289Z,14.25
2022-10-15T00:04:52.221Z,14.33
2022-10-15T00:05:52.187Z,14.32
2022-10-15T00:06:52.159Z,14.37
2022-10-15T00:07:52.127Z,14.40
2022-10-15T00:08:52.163Z,14.35
2022-10-15T00:09:52.075Z,14.35
2022-10-15T00:10:52.038Z,14.37
2022-10-15T00:11:52.061Z,14.35
2022-10-15T00:12:52.079Z,14.40
2022-10-15T00:13:51.981Z,14.33
2022-10-15T00:14:51.900Z,14.35
2022-10-15T00:15:51.913Z,14.35
2022-10-15T00:16:51.928Z,14.41
2022-10-15T00:17:51.815Z,14.35
2022-10-15T00:18:51.806Z,14.40
2022-10-15T00:19:51.755Z,14.32
2022-10-15T00:20:51.728Z,14.40
2022-10-15T00:21:51.830Z,14.43
2022-10-15T00:22:51.669Z,14.32
2022-10-15T00:23:51.634Z,14.43
2022-10-15T00:24:51.604Z,14.43
2022-10-15T00:25:51.599Z,14.44
2022-10-15T00:26:51.621Z,14.40
2022-10-15T00:27:51.534Z,14.48
2022-10-15T00:28:51.540Z,14.45
2022-10-15T00:29:51.482Z,14.44
2022-10-15T00:30:51.423Z,14.53
2022-10-15T00:31:51.411Z,14.55
2022-10-15T00:32:51.427Z,14.51
2022-10-15T00:33:51.336Z,14.54
2022-10-15T00:34:51.303Z,14.63
2022-10-15T00:35:51.259Z,14.54
2022-10-15T00:36:51.228Z,14.48
2022-10-15T00:37:51.195Z,14.48
2022-10-15T00:38:51.293Z,14.54
2022-10-15T00:39:51.196Z,14.51
2022-10-15T00:40:51.110Z,14.59
2022-10-15T00:41:51.081Z,14.60
2022-10-15T00:42:51.055Z,14.51
2022-10-15T00:43:51.012Z,14.60
2022-10-15T00:44:51.104Z,14.55
2022-10-15T00:45:51.002Z,14.58
2022-10-15T00:46:51.022Z,14.59
2022-10-15T00:47:50.893Z,14.55
2022-10-15T00:48:50.986Z,14.59
2022-10-15T00:49:50.834Z,14.59
2022-10-15T00:50:50.803Z,14.60
2022-10-15T00:51:50.762Z,14.58
2022-10-15T00:52:50.742Z,14.65
2022-10-15T00:53:50.703Z,14.58
2022-10-15T00:54:50.749Z,14.60
2022-10-15T00:55:50.640Z,14.65
2022-10-15T00:56:50.628Z,14.59
2022-10-15T00:57:50.589Z,14.62
2022-10-15T00:58:50.650Z,14.68
2022-10-15T00:59:50.515Z,14.58
2022-10-15T01:00:50.541Z,14.59
2022-10-15T01:01:50.456Z,14.60
2022-10-15T01:02:50.434Z,14.60
2022-10-15T01:03:50.402Z,14.60
2022-10-15T01:04:50.438Z,14.48
2022-10-15T01:05:50.330Z,14.58
2022-10-15T01:06:50.294Z,14.55
2022-10-15T01:07:50.266Z,14.50
2022-10-15T01:08:50.241Z,14.54
2022-10-15T01:09:50.281Z,14.47
2022-10-15T01:10:50.175Z,14.62
2022-10-15T01:11:50.144Z,14.48
2022-10-15T01:12:50.153Z,14.48
2022-10-15T01:13:50.095Z,14.44
2022-10-15T01:14:50.063Z,14.58
2022-10-15T01:15:50.076Z,14.50
2022-10-15T01:16:50.001Z,14.48
2022-10-15T01:17:49.959Z,14.50
2022-10-15T01:18:49.926Z,14.58
2022-10-15T01:19:49.900Z,14.44
2022-10-15T01:20:49.866Z,14.48
2022-10-15T01:21:49.924Z,14.55
2022-10-15T01:22:49.808Z,14.55
2022-10-15T01:23:49.773Z,14.50
2022-10-15T01:24:49.752Z,14.53
2022-10-15T01:25:49.724Z,14.51
2022-10-15T01:26:49.702Z,14.45
2022-10-15T01:27:49.725Z,14.60
2022-10-15T01:28:49.660Z,14.48
2022-10-15T01:29:49.594Z,14.54
2022-10-15T01:30:49.564Z,14.48
2022-10-15T01:31:49.539Z,14.48
2022-10-15T01:32:49.506Z,14.50
2022-10-15T01:33:49.539Z,14.47
2022-10-15T01:34:49.431Z,14.51
2022-10-15T01:35:49.421Z,14.54
2022-10-15T01:36:49.403Z,14.45
2022-10-15T01:37:49.334Z,14.53
2022-10-15T01:38:49.304Z,14.43
2022-10-15T01:39:49.359Z,14.48
2022-10-15T01:40:49.258Z,14.51
2022-10-15T01:41:49.228Z,14.44
2022-10-15T01:42:49.189Z,14.43
2022-10-15T01:43:49.179Z,14.43
2022-10-15T01:44:49.126Z,14.44
2022-10-15T01:45:49.175Z,14.50
2022-10-15T01:46:49.062Z,14.54
2022-10-15T01:47:49.055Z,14.36
2022-10-15T01:48:49.007Z,14.51
2022-10-15T01:49:48.989Z,14.37
2022-10-15T01:50:48.941Z,14.40
2022-10-15T01:51:48.957Z,14.40
2022-10-15T01:52:48.962Z,14.41
2022-10-15T01:53:48.839Z,14.36
2022-10-15T01:54:48.812Z,14.44
2022-10-15T01:55:48.777Z,14.29
2022-10-15T01:56:49.793Z,14.33
2022-10-15T01:57:48.727Z,14.36
2022-10-15T01:58:48.806Z,14.28
2022-10-15T01:59:48.663Z,14.44
2022-10-15T02:00:48.643Z,14.26
2022-10-15T02:01:48.613Z,14.29
2022-10-15T02:02:48.574Z,14.43
2022-10-15T02:03:48.589Z,14.33
2022-10-15T02:04:48.523Z,14.25
2022-10-15T02:05:48.469Z,14.43
2022-10-15T02:06:48.476Z,14.32
2022-10-15T02:07:48.409Z,14.25
2022-10-15T02:08:48.471Z,14.37
2022-10-15T02:09:48.346Z,14.33
2022-10-15T02:10:48.317Z,14.26
2022-10-15T02:11:48.305Z,14.28
2022-10-15T02:12:48.260Z,14.33
2022-10-15T02:13:48.227Z,14.28
2022-10-15T02:14:48.260Z,14.32
2022-10-15T02:15:48.156Z,14.26
2022-10-15T02:16:48.138Z,14.32
2022-10-15T02:17:48.108Z,14.25
2022-10-15T02:18:48.090Z,14.32
2022-10-15T02:19:48.140Z,14.32
2022-10-15T02:20:48.069Z,14.32
2022-10-15T02:21:47.975Z,14.32
2022-10-15T02:22:47.946Z,14.22
2022-10-15T02:23:47.911Z,14.22
2022-10-15T02:24:51.670Z,14.23
2022-10-15T02:25:47.850Z,14.20
2022-10-15T02:26:47.822Z,14.23
2022-10-15T02:27:47.796Z,14.23
2022-10-15T02:28:47.779Z,14.23
2022-10-15T02:29:47.782Z,14.22
2022-10-15T02:30:47.704Z,14.23
2022-10-15T02:31:47.681Z,14.20
2022-10-15T02:32:47.631Z,14.18
2022-10-15T02:33:47.617Z,14.26
2022-10-15T02:34:47.638Z,14.08
2022-10-15T02:35:47.541Z,14.12
2022-10-15T02:36:47.540Z,14.18
2022-10-15T02:37:47.475Z,14.10
2022-10-15T02:38:47.463Z,14.10
2022-10-15T02:39:47.499Z,14.07
2022-10-15T02:40:47.383Z,14.11
2022-10-15T02:41:47.397Z,14.12
2022-10-15T02:42:47.400Z,14.10
2022-10-15T02:43:47.286Z,14.12
2022-10-15T02:44:47.277Z,14.11
2022-10-15T02:45:47.297Z,14.11
2022-10-15T02:46:47.199Z,14.07
2022-10-15T02:47:47.175Z,14.12
2022-10-15T02:48:47.165Z,14.08
2022-10-15T02:49:47.105Z,14.08
2022-10-15T02:50:47.134Z,14.05
2022-10-15T02:51:47.124Z,14.12
2022-10-15T02:52:47.050Z,14.11
2022-10-15T02:53:47.007Z,14.11
2022-10-15T02:54:46.957Z,14.08
2022-10-15T02:55:46.916Z,14.12
2022-10-15T02:56:46.890Z,14.08
2022-10-15T02:57:46.914Z,14.17
2022-10-15T02:58:46.823Z,14.20
2022-10-15T02:59:46.794Z,14.11
2022-10-15T03:00:46.778Z,14.08
2022-10-15T03:01:46.731Z,14.10
2022-10-15T03:02:46.700Z,14.12
2022-10-15T03:03:46.736Z,14.07
2022-10-15T03:04:46.663Z,14.08
2022-10-15T03:05:46.677Z,14.14
2022-10-15T03:06:46.579Z,14.08
2022-10-15T03:07:46.545Z,14.11
2022-10-15T03:08:46.512Z,14.12
2022-10-15T03:09:46.500Z,14.11
2022-10-15T03:10:46.530Z,14.07
2022-10-15T03:11:46.416Z,14.10
2022-10-15T03:12:46.395Z,14.12
2022-10-15T03:13:46.373Z,14.12
2022-10-15T03:14:46.324Z,14.11
2022-10-15T03:15:46.395Z,14.07
2022-10-15T03:16:46.308Z,14.12
2022-10-15T03:17:46.230Z,14.10
2022-10-15T03:18:46.198Z,14.12
2022-10-15T03:19:46.178Z,14.08
2022-10-15T03:20:46.213Z,14.10
2022-10-15T03:21:46.102Z,14.07
2022-10-15T03:22:46.075Z,14.05
2022-10-15T03:23:46.774Z,14.07
2022-10-15T03:24:46.010Z,14.05
2022-10-15T03:25:46.044Z,13.97
2022-10-15T03:26:45.945Z,13.95
2022-10-15T03:27:45.922Z,13.97
2022-10-15T03:28:45.968Z,13.92
2022-10-15T03:29:45.856Z,13.92
2022-10-15T03:30:45.824Z,13.93
2022-10-15T03:31:45.857Z,13.92
2022-10-15T03:32:45.768Z,13.92
2022-10-15T03:33:45.768Z,13.95
2022-10-15T03:34:45.762Z,13.92
2022-10-15T03:35:45.678Z,13.89
2022-10-15T03:36:45.639Z,13.86
2022-10-15T03:37:45.655Z,13.79
2022-10-15T03:38:45.573Z,13.92
2022-10-15T03:39:45.545Z,13.85
2022-10-15T03:40:45.517Z,13.78
2022-10-15T03:41:45.544Z,13.72
2022-10-15T03:42:45.467Z,13.79
2022-10-15T03:43:45.440Z,13.86
2022-10-15T03:44:45.383Z,13.89
2022-10-15T03:45:45.386Z,13.78
2022-10-15T03:46:45.414Z,13.72
2022-10-15T03:47:45.312Z,13.77
2022-10-15T03:48:45.272Z,13.81
2022-10-15T03:49:45.265Z,13.74
2022-10-15T03:51:45.170Z,13.71
2022-10-15T03:52:45.194Z,13.81
2022-10-15T03:53:45.110Z,13.75
2022-10-15T03:54:45.081Z,13.79
2022-10-15T03:55:45.041Z,13.78
2022-10-15T03:56:45.015Z,13.77
2022-10-15T03:57:44.997Z,13.77
2022-10-15T03:58:45.464Z,13.77
2022-10-15T04:00:44.996Z,13.70
2022-10-15T04:01:44.864Z,13.77
2022-10-15T04:02:44.834Z,13.77
2022-10-15T04:03:44.853Z,13.72
2022-10-15T04:04:44.776Z,13.87
2022-10-15T04:05:44.737Z,13.90
2022-10-15T04:06:44.709Z,13.75
2022-10-15T04:07:44.728Z,13.86
2022-10-15T04:08:44.672Z,13.79
2022-10-15T04:09:44.696Z,13.90
2022-10-15T04:10:44.581Z,13.83
2022-10-15T04:11:44.571Z,13.86
2022-10-15T04:12:44.522Z,13.89
2022-10-15T04:13:44.538Z,13.87
2022-10-15T04:14:44.452Z,13.78
2022-10-15T04:15:44.415Z,13.78
2022-10-15T04:16:44.394Z,13.75
2022-10-15T04:17:44.372Z,13.77
2022-10-15T04:18:44.399Z,13.74
2022-10-15T04:19:44.292Z,13.75
2022-10-15T04:20:44.273Z,13.87
2022-10-15T04:21:44.225Z,13.83
2022-10-15T04:22:44.216Z,13.86
2022-10-15T04:23:44.224Z,13.92
2022-10-15T04:24:44.136Z,13.86
2022-10-15T04:25:44.176Z,13.83
2022-10-15T04:26:44.076Z,13.83
2022-10-15T04:27:44.057Z,13.89
2022-10-15T04:28:44.129Z,13.85
2022-10-15T04:29:43.983Z,13.96
2022-10-15T04:30:43.959Z,13.97
2022-10-15T04:31:43.920Z,13.87
2022-10-15T04:32:43.886Z,13.90
2022-10-15T04:33:43.914Z,13.93
2022-10-15T04:34:43.825Z,13.97
2022-10-15T04:35:43.790Z,13.92
2022-10-15T04:36:43.760Z,13.95
2022-10-15T04:37:43.739Z,13.89
2022-10-15T04:38:43.759Z,13.97
2022-10-15T04:39:43.679Z,13.92
2022-10-15T04:40:43.645Z,13.96
2022-10-15T04:41:43.621Z,13.93
2022-10-15T04:42:43.594Z,13.90
2022-10-15T04:43:43.619Z,13.87
2022-10-15T04:44:43.518Z,13.96
2022-10-15T04:45:43.497Z,13.92
2022-10-15T04:46:43.452Z,13.92
2022-10-15T04:47:43.417Z,13.83
2022-10-15T04:48:43.550Z,13.89
2022-10-15T04:49:43.418Z,13.87
2022-10-15T04:50:43.327Z,13.92
2022-10-15T04:51:43.296Z,13.79
2022-10-15T04:52:43.262Z,13.83
2022-10-15T04:53:43.230Z,13.70
2022-10-15T04:54:43.211Z,13.77
2022-10-15T04:55:43.252Z,13.72
2022-10-15T04:56:43.146Z,13.71
2022-10-15T04:57:43.133Z,13.67
2022-10-15T04:58:43.099Z,13.68
2022-10-15T04:59:43.060Z,13.63
2022-10-15T05:00:43.062Z,13.54
2022-10-15T05:01:43.003Z,13.47
2022-10-15T05:02:42.944Z,13.44
2022-10-15T05:03:45.076Z,13.42
2022-10-15T05:04:42.910Z,13.46
2022-10-15T05:05:42.906Z,13.31
2022-10-15T05:06:42.822Z,13.37
2022-10-15T05:07:42.789Z,13.39
2022-10-15T05:08:42.766Z,13.23
2022-10-15T05:09:46.131Z,13.19
2022-10-15T05:10:42.768Z,13.18
2022-10-15T05:11:42.666Z,13.20
2022-10-15T05:13:42.606Z,13.23
2022-10-15T05:14:42.576Z,13.22
2022-10-15T05:15:42.593Z,13.19
2022-10-15T05:16:42.533Z,13.12
2022-10-15T05:17:42.473Z,13.12
2022-10-15T05:18:42.434Z,12.97
2022-10-15T05:19:42.404Z,12.98
2022-10-15T05:20:42.432Z,12.91
2022-10-15T05:21:42.378Z,12.87
2022-10-15T05:22:42.350Z,12.90
2022-10-15T05:23:42.294Z,12.86
2022-10-15T05:24:42.268Z,12.80
2022-10-15T05:25:42.279Z,12.76
2022-10-15T05:26:42.182Z,12.86
2022-10-15T05:27:42.149Z,12.93
2022-10-15T05:28:42.172Z,12.85
2022-10-15T05:29:51.437Z,12.86
2022-10-15T05:30:42.055Z,12.82
2022-10-15T05:31:42.086Z,12.90
2022-10-15T05:32:41.995Z,12.90
2022-10-15T05:33:41.959Z,12.93
2022-10-15T05:34:41.927Z,12.86
2022-10-15T05:35:41.898Z,12.91
2022-10-15T05:36:41.861Z,12.93
2022-10-15T05:37:41.894Z,12.93
2022-10-15T05:38:41.801Z,12.95
2022-10-15T05:39:41.769Z,13.01
2022-10-15T05:40:41.732Z,13.08
2022-10-15T05:41:41.718Z,13.05
2022-10-15T05:42:41.692Z,13.08
2022-10-15T05:43:41.740Z,13.20
2022-10-15T05:44:41.619Z,13.22
2022-10-15T05:45:41.595Z,13.18
2022-10-15T05:46:41.544Z,13.19
2022-10-15T05:47:41.575Z,13.22
2022-10-15T05:48:41.484Z,13.13
2022-10-15T05:49:41.454Z,13.25
2022-10-15T05:50:41.415Z,13.31
2022-10-15T05:51:41.638Z,13.22
2022-10-15T05:52:41.348Z,13.25
2022-10-15T05:53:41.320Z,13.22
2022-10-15T05:54:41.285Z,13.25
2022-10-15T05:55:41.254Z,13.27
2022-10-15T05:56:41.268Z,13.19
2022-10-15T05:57:41.245Z,13.27
2022-10-15T05:58:41.161Z,13.25
2022-10-15T05:59:41.125Z,13.35
2022-10-15T06:00:41.100Z,13.31
2022-10-15T06:01:41.096Z,13.28
2022-10-15T06:02:41.248Z,13.23
2022-10-15T06:03:40.998Z,13.28
2022-10-15T06:04:40.968Z,13.31
2022-10-15T06:05:40.935Z,13.31
2022-10-15T06:06:40.901Z,13.31
2022-10-15T06:07:40.980Z,13.25
2022-10-15T06:08:40.854Z,13.30
2022-10-15T06:09:40.810Z,13.37
2022-10-15T06:10:40.779Z,13.35
2022-10-15T06:11:40.744Z,13.35
2022-10-15T06:12:40.715Z,13.37
2022-10-15T06:13:40.749Z,13.35
2022-10-15T06:14:40.655Z,13.35
2022-10-15T06:15:40.622Z,13.33
2022-10-15T06:16:40.585Z,13.22
2022-10-15T06:17:41.349Z,13.33
2022-10-15T06:18:40.527Z,13.22
2022-10-15T06:19:40.555Z,13.25
2022-10-15T06:20:40.470Z,13.16
2022-10-15T06:21:40.431Z,13.11
2022-10-15T06:22:40.508Z,13.23
2022-10-15T06:23:40.369Z,13.19
2022-10-15T06:24:40.333Z,13.22
2022-10-15T06:25:40.371Z,13.12
2022-10-15T06:26:40.271Z,13.08
2022-10-15T06:27:40.248Z,13.13
2022-10-15T06:28:40.331Z,13.09
2022-10-15T06:29:40.181Z,13.19
2022-10-15T06:30:40.161Z,13.16
2022-10-15T06:31:40.165Z,13.19
2022-10-15T06:32:40.078Z,13.09
2022-10-15T06:33:40.125Z,13.11
2022-10-15T06:34:40.021Z,13.03
2022-10-15T06:35:39.982Z,13.09
2022-10-15T06:36:39.959Z,13.08
2022-10-15T06:37:39.931Z,13.08
2022-10-15T06:38:39.885Z,13.15
2022-10-15T06:39:39.921Z,13.13
2022-10-15T06:40:39.834Z,13.13
2022-10-15T06:41:39.796Z,13.18
2022-10-15T06:42:39.809Z,13.20
2022-10-15T06:43:39.770Z,13.18
2022-10-15T06:44:39.706Z,13.28
2022-10-15T06:45:39.725Z,13.41
2022-10-15T06:46:39.689Z,13.49
2022-10-15T06:47:39.602Z,13.62
2022-10-15T06:48:39.570Z,13.67
2022-10-15T06:49:39.549Z,13.87
2022-10-15T06:50:39.575Z,13.95
2022-10-15T06:51:39.476Z,13.90
2022-10-15T06:52:39.511Z,14.05
2022-10-15T06:53:39.417Z,14.18
2022-10-15T06:54:39.383Z,14.28
2022-10-15T06:55:39.352Z,14.33
2022-10-15T06:56:39.317Z,14.28
2022-10-15T06:57:39.288Z,14.36
2022-10-15T06:58:39.324Z,14.32
2022-10-15T06:59:41.402Z,14.37
2022-10-15T07:00:39.197Z,14.45
2022-10-15T07:01:41.461Z,14.53
2022-10-15T07:02:39.132Z,14.54
2022-10-15T07:03:39.118Z,14.60
2022-10-15T07:04:39.141Z,14.55
2022-10-15T07:05:39.065Z,14.69
2022-10-15T07:06:39.009Z,14.66
2022-10-15T07:07:38.980Z,14.78
2022-10-15T07:08:38.951Z,14.88
2022-10-15T07:09:38.920Z,14.97
2022-10-15T07:10:38.940Z,14.99
2022-10-15T07:11:38.853Z,15.09
2022-10-15T07:12:38.827Z,15.18
2022-10-15T07:13:38.805Z,15.19
2022-10-15T07:14:41.642Z,15.40
2022-10-15T07:15:38.731Z,15.28
2022-10-15T07:16:38.764Z,15.40
2022-10-15T07:17:38.678Z,15.51
2022-10-15T07:18:38.641Z,15.65
2022-10-15T07:19:38.629Z,15.61
2022-10-15T07:20:38.614Z,15.68
2022-10-15T07:21:38.565Z,15.72
2022-10-15T07:22:40.370Z,15.76
2022-10-15T07:23:38.489Z,15.83
2022-10-15T07:24:38.507Z,15.80
2022-10-15T07:25:38.445Z,15.95
2022-10-15T07:26:38.402Z,16.09
2022-10-15T07:27:38.378Z,16.15
2022-10-15T07:28:38.446Z,16.21
2022-10-15T07:29:38.310Z,16.26
2022-10-15T07:30:38.292Z,16.36
2022-10-15T07:31:38.294Z,16.42
2022-10-15T07:32:38.232Z,16.49
2022-10-15T07:33:38.199Z,16.51
2022-10-15T07:34:38.349Z,16.56
2022-10-15T07:35:38.141Z,16.66
2022-10-15T07:36:38.107Z,16.72
2022-10-15T07:37:38.071Z,16.79
2022-10-15T07:38:38.062Z,16.89
2022-10-15T07:39:40.819Z,16.91
2022-10-15T07:40:37.982Z,17.09
2022-10-15T07:41:37.957Z,17.15
2022-10-15T07:42:37.928Z,17.23
2022-10-15T07:43:37.893Z,17.29
2022-10-15T07:44:37.922Z,17.41
2022-10-15T07:45:37.849Z,17.52
2022-10-15T07:46:37.817Z,17.56
2022-10-15T07:47:37.782Z,17.51
2022-10-15T07:48:37.772Z,17.56
2022-10-15T07:49:37.786Z,17.63
2022-10-15T07:50:40.320Z,17.57
2022-10-15T07:51:37.664Z,17.52
2022-10-15T07:52:37.643Z,17.36
2022-10-15T07:53:37.628Z,17.36
2022-10-15T07:54:37.633Z,17.36
2022-10-15T07:55:37.560Z,17.36
2022-10-15T07:56:37.526Z,17.44
2022-10-15T07:57:37.495Z,17.39
2022-10-15T07:58:37.469Z,17.42
2022-10-15T07:59:37.514Z,17.49
2022-10-15T08:00:37.412Z,17.56
2022-10-15T08:01:37.408Z,17.60
2022-10-15T08:02:37.349Z,17.65
2022-10-15T08:03:37.321Z,17.68
2022-10-15T08:04:37.289Z,17.80
2022-10-15T08:05:37.321Z,17.92
2022-10-15T08:06:37.234Z,17.94
2022-10-15T08:07:37.199Z,17.87
2022-10-15T08:08:37.192Z,17.90
2022-10-15T08:09:37.289Z,17.86
2022-10-15T08:10:37.195Z,17.97
2022-10-15T08:11:37.098Z,18.00
2022-10-15T08:12:37.064Z,18.05
2022-10-15T08:13:37.045Z,18.11
2022-10-15T08:14:37.008Z,18.19
2022-10-15T08:15:36.988Z,18.18
2022-10-15T08:16:37.017Z,18.19
2022-10-15T08:17:36.921Z,18.16
2022-10-15T08:18:36.895Z,18.18
2022-10-15T08:19:36.871Z,18.20
2022-10-15T08:20:36.853Z,18.31
2022-10-15T08:21:36.905Z,18.37
2022-10-15T08:22:36.776Z,18.41
2022-10-15T08:23:36.750Z,18.43
2022-10-15T08:24:36.735Z,18.37
2022-10-15T08:25:36.691Z,18.41
2022-10-15T08:26:36.671Z,18.45
2022-10-15T08:27:36.685Z,18.49
2022-10-15T08:28:36.699Z,18.49
2022-10-15T08:29:36.584Z,18.53
2022-10-15T08:30:36.564Z,18.43
2022-10-15T08:31:36.593Z,18.62
2022-10-15T08:32:36.497Z,18.70
2022-10-15T08:33:36.506Z,18.66
2022-10-15T08:34:36.447Z,18.78
2022-10-15T08:35:36.417Z,18.78
2022-10-15T08:36:36.389Z,18.95
2022-10-15T08:37:36.414Z,18.88
2022-10-15T08:38:36.330Z,18.95
2022-10-15T08:39:36.365Z,18.83
2022-10-15T08:40:36.277Z,18.93
2022-10-15T08:41:36.250Z,18.81
2022-10-15T08:42:36.221Z,18.78
2022-10-15T08:43:36.192Z,18.80
2022-10-15T08:44:36.169Z,18.92
2022-10-15T08:45:36.209Z,18.84
2022-10-15T08:46:36.111Z,19.00
2022-10-15T08:47:36.078Z,19.12
2022-10-15T08:48:36.061Z,19.22
2022-10-15T08:49:36.063Z,19.29
2022-10-15T08:50:36.000Z,19.33
2022-10-15T08:51:36.036Z,19.44
2022-10-15T08:52:35.959Z,19.37
2022-10-15T08:53:35.920Z,19.39
2022-10-15T08:54:35.901Z,19.39
2022-10-15T08:55:35.896Z,19.40
2022-10-15T08:56:35.913Z,19.41
2022-10-15T08:57:35.824Z,19.41
2022-10-15T08:58:38.259Z,19.45
2022-10-15T08:59:35.755Z,19.41
2022-10-15T09:00:35.727Z,19.45
2022-10-15T09:01:35.727Z,19.39
2022-10-15T09:02:35.765Z,19.41
2022-10-15T09:03:35.656Z,19.39
2022-10-15T09:04:35.642Z,19.48
2022-10-15T09:05:35.600Z,19.54
2022-10-15T09:06:35.598Z,19.54
2022-10-15T09:07:35.630Z,19.52
2022-10-15T09:08:35.518Z,19.70
2022-10-15T09:09:35.484Z,19.69
2022-10-15T09:10:35.468Z,19.52
2022-10-15T09:11:35.440Z,19.48
2022-10-15T09:12:35.415Z,19.56
2022-10-15T09:14:35.377Z,19.70
2022-10-15T09:15:35.341Z,19.84
2022-10-15T09:16:35.306Z,19.91
2022-10-15T09:17:35.274Z,20.00
2022-10-15T09:18:35.304Z,20.02
2022-10-15T09:19:35.221Z,20.03
2022-10-15T09:20:35.196Z,20.10
2022-10-15T09:21:35.219Z,20.04
2022-10-15T09:22:35.145Z,20.13
2022-10-15T09:23:35.179Z,20.04
2022-10-15T09:24:35.088Z,20.00
2022-10-15T09:25:35.062Z,19.88
2022-10-15T09:26:35.038Z,19.99
2022-10-15T09:27:35.070Z,19.95
2022-10-15T09:28:35.041Z,19.95
2022-10-15T09:29:34.957Z,19.99
2022-10-15T09:30:34.985Z,19.91
2022-10-15T09:31:34.924Z,19.92
2022-10-15T09:32:34.903Z,20.04
2022-10-15T09:33:34.947Z,20.07
2022-10-15T09:34:34.857Z,20.04
2022-10-15T09:35:34.806Z,20.06
2022-10-15T09:36:34.777Z,20.10
2022-10-15T09:37:34.760Z,20.11
2022-10-15T09:38:34.721Z,20.13
2022-10-15T09:39:34.784Z,20.13
2022-10-15T09:40:34.678Z,20.19
2022-10-15T09:41:34.648Z,20.21
2022-10-15T09:42:34.616Z,20.10
2022-10-15T09:43:34.588Z,20.28
2022-10-15T09:44:34.567Z,20.28
2022-10-15T09:45:34.621Z,20.28
2022-10-15T09:46:34.516Z,20.31
2022-10-15T09:47:34.489Z,20.34
2022-10-15T09:48:34.476Z,20.26
2022-10-15T09:49:36.468Z,20.19
2022-10-15T09:50:34.405Z,20.25
2022-10-15T09:51:34.451Z,20.25
2022-10-15T09:52:34.365Z,20.31
2022-10-15T09:53:34.348Z,20.34
2022-10-15T09:54:34.374Z,20.41
2022-10-15T09:55:34.356Z,20.43
2022-10-15T09:56:34.253Z,20.52
2022-10-15T09:57:34.238Z,20.47
2022-10-15T09:58:34.213Z,20.50
2022-10-15T09:59:34.180Z,20.56
2022-10-15T10:00:34.143Z,20.60
2022-10-15T10:01:34.179Z,20.62
2022-10-15T10:02:34.126Z,20.50
2022-10-15T10:03:34.085Z,20.63
2022-10-15T10:04:34.065Z,20.72
2022-10-15T10:05:34.041Z,20.82
2022-10-15T10:06:33.994Z,20.97
2022-10-15T10:07:34.090Z,21.02
2022-10-15T10:08:33.938Z,21.05
2022-10-15T10:09:33.924Z,21.09
2022-10-15T10:10:33.950Z,21.11
2022-10-15T10:11:33.906Z,21.17
2022-10-15T10:12:33.891Z,21.18
2022-10-15T10:13:33.890Z,21.07
2022-10-15T10:14:33.786Z,20.69
2022-10-15T10:15:34.480Z,20.55
2022-10-15T10:16:33.924Z,20.60
2022-10-15T10:17:34.426Z,20.63
2022-10-15T10:18:33.751Z,20.52
2022-10-15T10:19:33.672Z,20.52
2022-10-15T10:20:33.630Z,20.56
2022-10-15T10:21:33.606Z,20.58
2022-10-15T10:22:33.608Z,20.74
2022-10-15T10:23:33.643Z,20.74
2022-10-15T10:24:33.538Z,20.58
2022-10-15T10:25:33.498Z,20.58
2022-10-15T10:26:33.503Z,20.52
2022-10-15T10:27:33.491Z,20.52
2022-10-15T10:28:33.458Z,20.65
2022-10-15T10:29:34.836Z,20.84
2022-10-15T10:30:33.388Z,20.78
2022-10-15T10:31:33.343Z,20.96
2022-10-15T10:32:33.325Z,21.03
2022-10-15T10:33:33.306Z,21.09
2022-10-15T10:34:33.273Z,20.93
2022-10-15T10:35:33.303Z,20.93
2022-10-15T10:36:33.225Z,20.80
2022-10-15T10:37:33.248Z,20.74
2022-10-15T10:38:33.176Z,20.74
2022-10-15T10:39:33.145Z,20.84
2022-10-15T10:40:33.127Z,20.92
2022-10-15T10:41:33.095Z,20.93
2022-10-15T10:42:33.197Z,21.05
2022-10-15T10:43:38.222Z,21.18
2022-10-15T10:44:33.028Z,21.25
2022-10-15T10:45:33.069Z,21.37
2022-10-15T10:46:32.987Z,21.39
2022-10-15T10:47:32.996Z,21.48
2022-10-15T10:48:32.920Z,21.50
2022-10-15T10:49:32.890Z,21.55
2022-10-15T10:50:32.868Z,21.54
2022-10-15T10:51:32.839Z,21.42
2022-10-15T10:52:32.870Z,21.29
2022-10-15T10:53:32.790Z,21.29
2022-10-15T10:54:32.787Z,21.17
2022-10-15T10:55:32.740Z,21.06
2022-10-15T10:56:32.709Z,20.93
2022-10-15T10:57:32.758Z,20.87
2022-10-15T10:58:32.699Z,20.78
2022-10-15T10:59:32.637Z,20.74
2022-10-15T11:00:32.671Z,20.66
2022-10-15T11:01:32.582Z,20.72
2022-10-15T11:02:32.557Z,20.50
2022-10-15T11:03:32.595Z,20.40
2022-10-15T11:04:32.510Z,20.60
2022-10-15T11:05:32.479Z,20.59
2022-10-15T11:06:32.460Z,20.74
2022-10-15T11:07:32.434Z,20.88
2022-10-15T11:08:32.527Z,21.03
2022-10-15T11:09:32.437Z,21.09
2022-10-15T11:10:32.396Z,21.30
2022-10-15T11:11:32.331Z,21.36
2022-10-15T11:12:32.303Z,21.40
2022-10-15T11:13:32.277Z,21.40
2022-10-15T11:14:32.313Z,21.48
2022-10-15T11:15:32.286Z,21.57
2022-10-15T11:16:32.205Z,21.69
2022-10-15T11:17:32.176Z,21.72
2022-10-15T11:18:32.146Z,21.76
2022-10-15T11:19:59.535Z,21.83
2022-10-15T11:20:49.909Z,21.76
2022-10-15T11:21:32.075Z,21.66
2022-10-15T11:22:32.056Z,21.35
2022-10-15T11:23:32.025Z,21.06
2022-10-15T11:24:42.580Z,21.02
2022-10-15T11:25:31.969Z,20.93
2022-10-15T11:26:37.611Z,20.95
2022-10-15T11:27:31.921Z,20.99
2022-10-15T11:28:32.001Z,20.90
2022-10-15T11:29:31.876Z,21.05
2022-10-15T11:30:41.075Z,21.02
2022-10-15T11:31:37.097Z,21.03
2022-10-15T11:32:47.948Z,20.95
2022-10-15T11:33:32.013Z,20.84
2022-10-15T11:34:32.486Z,20.84
2022-10-15T11:35:51.657Z,20.82
2022-10-15T11:36:31.686Z,20.82
2022-10-15T11:37:31.663Z,20.90
2022-10-15T11:38:31.685Z,21.00
2022-10-15T11:39:31.607Z,20.92
2022-10-15T11:41:31.562Z,21.00
2022-10-15T11:42:31.554Z,20.99
2022-10-15T11:43:31.504Z,21.12
2022-10-15T11:44:31.491Z,21.14
2022-10-15T11:45:31.460Z,21.18
2022-10-15T11:46:31.484Z,21.27
2022-10-15T11:47:31.421Z,21.40
2022-10-15T11:48:31.393Z,21.51
2022-10-15T11:49:31.452Z,21.61
2022-10-15T11:50:31.327Z,21.57
2022-10-15T11:51:31.683Z,21.51
2022-10-15T11:52:31.291Z,21.45
2022-10-15T11:53:31.287Z,21.33
2022-10-15T11:54:31.234Z,21.21
2022-10-15T11:55:31.206Z,21.21
2022-10-15T11:56:34.954Z,21.24
2022-10-15T11:57:31.978Z,21.21
2022-10-15T11:58:31.137Z,21.14
2022-10-15T11:59:31.109Z,20.97
2022-10-15T12:00:31.077Z,20.92
2022-10-15T12:01:31.055Z,20.78
2022-10-15T12:02:31.147Z,20.84
2022-10-15T12:03:31.003Z,20.88
2022-10-15T12:04:32.716Z,20.95
2022-10-15T12:05:30.957Z,20.90
2022-10-15T12:06:30.995Z,21.02
2022-10-15T12:07:30.908Z,21.02
2022-10-15T12:08:30.909Z,21.05
2022-10-15T12:09:30.928Z,21.05
2022-10-15T12:10:30.858Z,21.15
2022-10-15T12:11:30.792Z,21.17
2022-10-15T12:12:30.831Z,21.22
2022-10-15T12:13:30.743Z,21.36
2022-10-15T12:14:30.717Z,21.42
2022-10-15T12:15:30.689Z,21.36
2022-10-15T12:16:30.666Z,21.45
2022-10-15T12:17:30.641Z,21.55
2022-10-15T12:18:30.672Z,21.43
2022-10-15T12:19:30.584Z,21.37
2022-10-15T12:20:30.595Z,21.33
2022-10-15T12:21:30.533Z,21.36
2022-10-15T12:22:33.608Z,21.37
2022-10-15T12:23:30.482Z,21.43
2022-10-15T12:24:30.521Z,21.35
2022-10-15T12:25:30.436Z,21.32
2022-10-15T12:26:30.433Z,21.24
2022-10-15T12:27:30.384Z,21.21
2022-10-15T12:28:30.441Z,21.17
2022-10-15T12:29:30.326Z,21.24
2022-10-15T12:30:30.363Z,21.22
2022-10-15T12:31:32.185Z,21.22
2022-10-15T12:32:30.298Z,21.21
2022-10-15T12:33:30.231Z,21.27
2022-10-15T12:34:30.213Z,21.25
2022-10-15T12:35:30.225Z,21.11
2022-10-15T12:36:30.261Z,21.07
2022-10-15T12:37:30.227Z,21.03
2022-10-15T12:38:30.098Z,21.06
2022-10-15T12:39:59.938Z,21.12
2022-10-15T12:40:30.071Z,21.14
2022-10-15T12:41:30.030Z,21.14
2022-10-15T12:42:30.198Z,21.14
2022-10-15T12:43:30.036Z,21.06
2022-10-15T12:44:29.946Z,20.95
2022-10-15T12:45:29.926Z,20.84
2022-10-15T12:46:29.897Z,20.90
2022-10-15T12:47:29.876Z,20.95
2022-10-15T12:48:29.904Z,21.09
2022-10-15T12:49:29.836Z,21.00
2022-10-15T12:50:29.799Z,21.06
2022-10-15T12:51:29.792Z,21.17
2022-10-15T12:52:29.744Z,21.17
2022-10-15T12:53:29.839Z,21.06
2022-10-15T12:54:29.816Z,21.14
2022-10-15T12:55:29.670Z,21.14
2022-10-15T12:56:29.643Z,21.24
2022-10-15T12:57:29.620Z,21.24